Time;durP1;ratioP1;P1;durP2;ratioP2;P2;SDS_P1;SDS_P2;PMS_P1;PMS_P2;Temp;Humidity;BMP_temperature;BMP_pressure;BME280_temperature;BME280_humidity;BME280_pressure;Samples;Min_cycle;Max_cycle;Signal;HPM_P1;HPM_P2
2022/09/02 00:01:16;;;;;;;26.27;24.90;;;;;;;;;;16888063;28;20600;-83
2022/09/02 00:09:37;;;;;;;13.43;12.63;;;;;;;;;;16889535;29;20177;-84
2022/09/02 00:17:58;;;;;;;20.73;19.47;;;;;;;;;;16888114;29;20284;-84
2022/09/02 00:26:18;;;;;;;25.33;23.97;;;;;;;;;;16887098;29;20635;-84
2022/09/02 00:34:39;;;;;;;20.13;19.03;;;;;;;;;;16886372;29;20209;-84
2022/09/02 00:42:59;;;;;;;17.63;16.63;;;;;;;;;;16887868;29;20192;-83
2022/09/02 00:51:20;;;;;;;21.03;19.83;;;;;;;;;;16886499;29;20556;-84
2022/09/02 00:59:44;;;;;;;19.53;18.23;;;;;;;;;;16885275;29;20245;-84
2022/09/02 01:08:06;;;;;;;27.20;25.50;;;;;;;;;;16884987;28;20173;-83
2022/09/02 01:16:29;;;;;;;24.67;23.17;;;;;;;;;;16884452;28;20706;-83
2022/09/02 01:24:49;;;;;;;18.40;17.23;;;;;;;;;;16885316;29;20219;-83
2022/09/02 01:33:10;;;;;;;27.00;25.10;;;;;;;;;;16883990;29;20656;-83
2022/09/02 01:41:30;;;;;;;29.73;27.87;;;;;;;;;;16895277;29;20701;-83
2022/09/02 01:49:51;;;;;;;26.00;24.67;;;;;;;;;;16894541;29;20461;-83
2022/09/02 01:58:11;;;;;;;21.40;20.07;;;;;;;;;;16895586;28;20248;-83
2022/09/02 02:06:31;;;;;;;37.50;35.20;;;;;;;;;;16893820;29;20185;-83
2022/09/02 02:14:52;;;;;;;26.50;24.90;;;;;;;;;;16894254;29;20209;-83
2022/09/02 02:23:12;;;;;;;30.47;28.67;;;;;;;;;;16893908;29;20622;-83
2022/09/02 02:31:32;;;;;;;27.50;26.00;;;;;;;;;;16893442;29;20181;-83
2022/09/02 02:39:53;;;;;;;23.17;21.40;;;;;;;;;;16893026;29;20291;-83
2022/09/02 02:48:13;;;;;;;29.67;28.07;;;;;;;;;;16891035;29;20233;-83
2022/09/02 02:56:34;;;;;;;43.43;41.23;;;;;;;;;;16890990;28;20593;-83
2022/09/02 03:04:55;;;;;;;48.40;46.10;;;;;;;;;;16893781;29;20263;-83
2022/09/02 03:13:15;;;;;;;55.47;52.47;;;;;;;;;;16891478;29;20173;-83
2022/09/02 03:21:35;;;;;;;116.10;108.87;;;;;;;;;;16889849;29;20188;-84
2022/09/02 03:29:56;;;;;;;10.23;6.80;;;;;;;;;;16890506;29;20228;-84
2022/09/02 03:38:16;;;;;;;7.57;5.57;;;;;;;;;;16889175;29;20617;-84
2022/09/02 03:46:36;;;;;;;8.27;5.93;;;;;;;;;;16889781;28;20220;-84
2022/09/02 03:54:57;;;;;;;8.60;5.63;;;;;;;;;;16888248;28;20232;-84
2022/09/02 04:03:17;;;;;;;9.43;5.53;;;;;;;;;;16886653;28;20244;-83
2022/09/02 04:11:41;;;;;;;7.47;5.13;;;;;;;;;;16887171;29;20830;-83
2022/09/02 04:20:03;;;;;;;7.83;5.60;;;;;;;;;;16889057;29;20181;-83
2022/09/02 04:28:23;;;;;;;8.67;5.43;;;;;;;;;;16888500;29;20209;-83
2022/09/02 04:36:44;;;;;;;249.03;235.47;;;;;;;;;;16887444;28;20181;-83
2022/09/02 04:45:05;;;;;;;307.00;288.93;;;;;;;;;;16885778;29;20216;-83
2022/09/02 04:53:25;;;;;;;186.25;175.32;;;;;;;;;;16886480;29;20177;-84
2022/09/02 05:01:46;;;;;;;262.45;247.50;;;;;;;;;;16885011;28;20299;-84
2022/09/02 05:10:06;;;;;;;355.80;332.37;;;;;;;;;;16888938;29;20204;-83
2022/09/02 05:18:27;;;;;;;473.23;434.05;;;;;;;;;;16908078;28;20239;-84
2022/09/02 05:26:48;;;;;;;525.90;479.98;;;;;;;;;;16905455;28;20224;-84
2022/09/02 05:35:09;;;;;;;1028.47;933.42;;;;;;;;;;16905347;29;20215;-84
2022/09/02 05:43:29;;;;;;;982.50;889.92;;;;;;;;;;16906012;29;20177;-84
2022/09/02 05:51:51;;;;;;;795.35;727.30;;;;;;;;;;16905483;29;20217;-84
2022/09/02 06:00:12;;;;;;;684.40;630.80;;;;;;;;;;16905932;28;20239;-83
2022/09/02 06:08:33;;;;;;;649.58;598.83;;;;;;;;;;16905561;29;20216;-83
2022/09/02 06:16:54;;;;;;;654.92;597.22;;;;;;;;;;16904781;29;20182;-84
2022/09/02 06:25:14;;;;;;;738.55;672.70;;;;;;;;;;16894569;28;20213;-85
2022/09/02 06:33:35;;;;;;;1306.28;999.90;;;;;;;;;;16893452;29;20216;-83
2022/09/02 06:41:55;;;;;;;1319.28;999.90;;;;;;;;;;16891332;29;20201;-83
2022/09/02 06:50:16;;;;;;;1321.82;999.90;;;;;;;;;;16892653;29;20684;-84
2022/09/02 06:58:36;;;;;;;1246.05;999.90;;;;;;;;;;16891029;28;20596;-83
2022/09/02 07:06:57;;;;;;;1184.47;999.90;;;;;;;;;;16890650;28;20220;-84
2022/09/02 07:15:18;;;;;;;1147.53;999.90;;;;;;;;;;16890269;29;20189;-83
2022/09/02 07:23:38;;;;;;;1138.50;999.90;;;;;;;;;;16890236;29;20264;-83
2022/09/02 07:31:59;;;;;;;1079.22;985.50;;;;;;;;;;16888956;29;20201;-83
2022/09/02 07:40:19;;;;;;;1108.70;999.90;;;;;;;;;;16888976;28;20170;-83
2022/09/02 07:48:40;;;;;;;1060.30;970.35;;;;;;;;;;16889352;28;20221;-82
2022/09/02 07:57:01;;;;;;;1063.82;973.13;;;;;;;;;;16888308;28;20320;-83
2022/09/02 08:05:21;;;;;;;1177.05;999.90;;;;;;;;;;16882778;29;20205;-82
2022/09/02 08:13:41;;;;;;;619.38;566.60;;;;;;;;;;16883990;29;20182;-82
2022/09/02 08:22:04;;;;;;;442.13;406.77;;;;;;;;;;16887718;28;20521;-84
2022/09/02 08:30:24;;;;;;;374.15;346.80;;;;;;;;;;16885453;29;20209;-85
2022/09/02 08:38:45;;;;;;;354.35;329.42;;;;;;;;;;16886472;29;20181;-85
2022/09/02 08:47:11;;;;;;;359.38;334.05;;;;;;;;;;16881466;29;20256;-86
2022/09/02 08:55:34;;;;;;;329.38;307.27;;;;;;;;;;16879892;28;20279;-86
2022/09/02 09:03:54;;;;;;;246.45;231.43;;;;;;;;;;16885788;29;20204;-85
2022/09/02 09:12:19;;;;;;;221.88;208.80;;;;;;;;;;16884347;29;20197;-86
2022/09/02 09:20:40;;;;;;;193.95;182.85;;;;;;;;;;16885227;28;20280;-85
2022/09/02 09:29:02;;;;;;;207.45;195.57;;;;;;;;;;16883677;29;20213;-86
2022/09/02 09:37:30;;;;;;;204.68;193.10;;;;;;;;;;16885410;29;20184;-84
2022/09/02 09:45:50;;;;;;;185.77;175.38;;;;;;;;;;16884755;29;20235;-85
2022/09/02 09:54:15;;;;;;;178.43;168.57;;;;;;;;;;16884022;29;20181;-86
2022/09/02 10:02:44;;;;;;;179.73;169.70;;;;;;;;;;16893631;28;20267;-85
2022/09/02 10:11:07;;;;;;;149.38;141.70;;;;;;;;;;16894401;29;20530;-86
2022/09/02 10:19:40;;;;;;;144.73;137.15;;;;;;;;;;16893934;28;20181;-86
2022/09/02 10:28:10;;;;;;;154.93;146.82;;;;;;;;;;16892306;29;20232;-86
2022/09/02 10:36:38;;;;;;;154.98;146.98;;;;;;;;;;16893112;28;20497;-85
2022/09/02 10:45:17;;;;;;;157.32;149.23;;;;;;;;;;16892605;29;20197;-86
2022/09/02 10:53:58;;;;;;;152.25;144.48;;;;;;;;;;16892232;28;20178;-86
2022/09/02 11:02:30;;;;;;;158.77;150.40;;;;;;;;;;16893513;28;20320;-85
2022/09/02 11:11:03;;;;;;;136.60;129.85;;;;;;;;;;16889983;29;20201;-86
2022/09/02 11:19:29;;;;;;;151.05;143.38;;;;;;;;;;16891386;29;20180;-86
2022/09/02 11:28:09;;;;;;;151.43;143.90;;;;;;;;;;16890240;28;20672;-86
2022/09/02 11:36:29;;;;;;;138.10;131.37;;;;;;;;;;16889904;29;20188;-86
2022/09/02 11:45:09;;;;;;;143.65;136.23;;;;;;;;;;16888481;28;20567;-87
2022/09/02 11:53:40;;;;;;;143.75;136.48;;;;;;;;;;16888427;28;20281;-87
2022/09/02 12:02:01;;;;;;;147.95;140.32;;;;;;;;;;16887695;28;20318;-85
2022/09/02 12:10:43;;;;;;;150.63;142.68;;;;;;;;;;16886540;29;20217;-86
2022/09/02 12:19:09;;;;;;;146.48;138.80;;;;;;;;;;16888113;29;20260;-86
2022/09/02 12:27:35;;;;;;;139.50;132.13;;;;;;;;;;16886443;29;20680;-85
2022/09/02 12:35:57;;;;;;;128.77;122.40;;;;;;;;;;16885014;28;20177;-85
2022/09/02 12:44:22;;;;;;;134.23;127.32;;;;;;;;;;16886929;28;20215;-87
2022/09/02 12:52:44;;;;;;;132.90;126.20;;;;;;;;;;16885063;29;20316;-85
2022/09/02 13:01:24;;;;;;;130.85;124.28;;;;;;;;;;16883731;28;20236;-85
2022/09/02 13:10:03;;;;;;;138.85;131.85;;;;;;;;;;16885395;29;20201;-85
2022/09/02 13:18:42;;;;;;;134.93;128.15;;;;;;;;;;16886490;29;20185;-85
2022/09/02 13:27:17;;;;;;;148.23;140.65;;;;;;;;;;16885262;28;20212;-85
2022/09/02 13:35:39;;;;;;;157.73;149.50;;;;;;;;;;16892009;29;20667;-85
2022/09/02 13:44:10;;;;;;;153.88;145.73;;;;;;;;;;16895568;28;20194;-85
2022/09/02 13:52:30;;;;;;;153.65;145.52;;;;;;;;;;16896432;29;20220;-85
2022/09/02 14:00:51;;;;;;;154.30;146.13;;;;;;;;;;16895531;28;20260;-85
2022/09/02 14:09:37;;;;;;;152.82;144.73;;;;;;;;;;16894716;29;20479;-85
2022/09/02 14:18:07;;;;;;;128.20;121.78;;;;;;;;;;16893614;29;20186;-85
2022/09/02 14:26:40;;;;;;;148.00;140.38;;;;;;;;;;16894239;29;20244;-85
2022/09/02 14:35:17;;;;;;;140.38;133.27;;;;;;;;;;16892399;28;20174;-86
2022/09/02 14:43:43;;;;;;;141.68;134.35;;;;;;;;;;16891345;29;20169;-85
2022/09/02 14:52:14;;;;;;;152.95;145.00;;;;;;;;;;16891204;29;20817;-85
2022/09/02 15:00:37;;;;;;;152.57;144.52;;;;;;;;;;16891170;28;20237;-86
2022/09/02 15:08:58;;;;;;;159.98;151.68;;;;;;;;;;16888009;29;20208;-90
2022/09/02 15:17:19;;;;;;;165.65;156.82;;;;;;;;;;16884688;28;20558;-87
2022/09/02 15:25:40;;;;;;;151.55;143.63;;;;;;;;;;16886192;28;20297;-87
2022/09/02 15:34:01;;;;;;;150.20;142.60;;;;;;;;;;16889498;29;20496;-86
2022/09/02 15:42:25;;;;;;;158.35;150.13;;;;;;;;;;16890145;29;20178;-87
2022/09/02 15:50:45;;;;;;;159.30;151.18;;;;;;;;;;16888419;29;20223;-86
2022/09/02 15:59:13;;;;;;;167.27;158.38;;;;;;;;;;16887411;28;20240;-87
2022/09/02 16:07:33;;;;;;;163.63;154.93;;;;;;;;;;16888951;29;20213;-86
2022/09/02 16:15:58;;;;;;;148.43;140.77;;;;;;;;;;16888480;29;20636;-86
2022/09/02 16:24:20;;;;;;;177.00;167.70;;;;;;;;;;16887673;29;20189;-86
2022/09/02 16:32:40;;;;;;;172.43;163.53;;;;;;;;;;16886365;29;20652;-85
2022/09/02 16:41:01;;;;;;;177.57;167.77;;;;;;;;;;16883043;28;20204;-86
2022/09/02 16:49:21;;;;;;;171.67;162.47;;;;;;;;;;16880164;28;20221;-86
2022/09/02 16:57:41;;;;;;;182.20;172.67;;;;;;;;;;16882040;28;20473;-86
2022/09/02 17:06:02;;;;;;;164.17;155.97;;;;;;;;;;16883784;29;20204;-86
2022/09/02 17:14:22;;;;;;;241.50;228.60;;;;;;;;;;16886081;29;20224;-86
2022/09/02 17:22:43;;;;;;;273.07;258.03;;;;;;;;;;16885216;29;20208;-87
2022/09/02 17:31:12;;;;;;;248.07;234.87;;;;;;;;;;16881032;28;20228;-86
2022/09/02 17:39:32;;;;;;;215.73;204.53;;;;;;;;;;16882810;29;20425;-86
2022/09/02 17:47:53;;;;;;;255.30;241.80;;;;;;;;;;16882455;29;20213;-85
2022/09/02 17:56:32;;;;;;;248.63;235.40;;;;;;;;;;16881227;28;20321;-85
2022/09/02 18:05:11;;;;;;;236.87;223.97;;;;;;;;;;16878614;29;20174;-85
2022/09/02 18:13:40;;;;;;;191.53;181.63;;;;;;;;;;16881192;29;20189;-85
2022/09/02 18:22:00;;;;;;;230.57;218.40;;;;;;;;;;16889226;29;20227;-86
2022/09/02 18:30:29;;;;;;;184.83;175.27;;;;;;;;;;16892853;29;20590;-85
2022/09/02 18:39:05;;;;;;;234.00;221.63;;;;;;;;;;16888936;29;20212;-85
2022/09/02 18:47:27;;;;;;;211.00;200.20;;;;;;;;;;16888157;28;20221;-85
2022/09/02 18:55:50;;;;;;;236.87;224.27;;;;;;;;;;16884897;28;20701;-85
2022/09/02 19:04:10;;;;;;;220.57;209.13;;;;;;;;;;16884651;28;20198;-85
2022/09/02 19:12:32;;;;;;;238.70;226.07;;;;;;;;;;16888311;29;20236;-86
2022/09/02 19:20:53;;;;;;;250.77;237.47;;;;;;;;;;16889424;29;20188;-86
2022/09/02 19:29:15;;;;;;;255.70;242.30;;;;;;;;;;16887090;28;20550;-85
2022/09/02 19:37:36;;;;;;;281.10;265.33;;;;;;;;;;16885888;28;20181;-85
2022/09/02 19:45:58;;;;;;;242.50;228.67;;;;;;;;;;16885790;29;20736;-85
2022/09/02 19:54:21;;;;;;;297.70;280.80;;;;;;;;;;16887729;29;20173;-85
2022/09/02 20:02:45;;;;;;;289.00;272.73;;;;;;;;;;16888687;28;20696;-85
2022/09/02 20:11:05;;;;;;;305.07;287.27;;;;;;;;;;16886448;28;20208;-86
2022/09/02 20:19:26;;;;;;;305.63;287.70;;;;;;;;;;16888649;29;20177;-86
2022/09/02 20:28:09;;;;;;;315.77;297.53;;;;;;;;;;16887358;29;20893;-85
2022/09/02 20:36:39;;;;;;;347.90;325.93;;;;;;;;;;16887584;29;20255;-86
2022/09/02 20:45:09;;;;;;;371.57;348.07;;;;;;;;;;16885283;29;20197;-86
2022/09/02 20:53:29;;;;;;;356.20;333.77;;;;;;;;;;16884823;28;20586;-86
2022/09/02 21:01:52;;;;;;;458.13;426.70;;;;;;;;;;16878484;28;20240;-86
2022/09/02 21:10:13;;;;;;;472.80;439.37;;;;;;;;;;16882207;28;20201;-86
2022/09/02 21:18:33;;;;;;;490.07;454.67;;;;;;;;;;16884134;28;20251;-86
2022/09/02 21:26:54;;;;;;;457.30;422.90;;;;;;;;;;16884326;29;20279;-86
2022/09/02 21:35:17;;;;;;;477.87;440.27;;;;;;;;;;16885009;29;20181;-87
2022/09/02 21:43:51;;;;;;;474.40;439.23;;;;;;;;;;16883886;29;20235;-85
2022/09/02 21:52:17;;;;;;;471.30;435.47;;;;;;;;;;16886811;28;20575;-85
2022/09/02 22:00:42;;;;;;;466.83;431.33;;;;;;;;;;16896668;29;20260;-85
2022/09/02 22:09:07;;;;;;;424.57;390.90;;;;;;;;;;16894912;29;20236;-85
2022/09/02 22:17:44;;;;;;;443.43;407.37;;;;;;;;;;16894670;29;20256;-84
2022/09/02 22:26:27;;;;;;;450.67;409.23;;;;;;;;;;16893167;29;20205;-84
2022/09/02 22:35:09;;;;;;;378.20;344.97;;;;;;;;;;16892112;29;20200;-85
2022/09/02 22:43:33;;;;;;;50.30;47.67;;;;;;;;;;16894610;28;20501;-85
2022/09/02 23:00:45;;;;;;;26.07;24.27;;;;;;;;;;16892489;28;20239;-85
2022/09/02 23:09:10;;;;;;;20.80;19.50;;;;;;;;;;16889205;29;20189;-85
2022/09/02 23:17:39;;;;;;;20.60;19.20;;;;;;;;;;16887453;28;20596;-85
2022/09/02 23:26:20;;;;;;;19.63;18.20;;;;;;;;;;16892236;28;20212;-85
2022/09/02 23:34:57;;;;;;;19.90;18.30;;;;;;;;;;16894067;28;20201;-85
2022/09/02 23:43:17;;;;;;;18.50;17.17;;;;;;;;;;16892311;29;20784;-86
2022/09/02 23:51:50;;;;;;;22.47;20.97;;;;;;;;;;16889775;28;20225;-85
